sensor_id;sensor_type;location;lat;lon;timestamp;pressure;altitude;pressure_sealevel;temperature;humidity
48216;BME280;34005;48.844;10.098;2023-04-05T00:00:51;97178.00;;;2.34;56.34
48216;BME280;34005;48.844;10.098;2023-04-05T00:03:19;97167.91;;;2.31;56.04
48216;BME280;34005;48.844;10.098;2023-04-05T00:05:47;97169.31;;;2.35;57.12
48216;BME280;34005;48.844;10.098;2023-04-05T00:08:15;97158.56;;;2.41;55.04
48216;BME280;34005;48.844;10.098;2023-04-05T00:10:52;97156.56;;;2.34;53.70
48216;BME280;34005;48.844;10.098;2023-04-05T00:13:20;97156.69;;;2.21;53.33
48216;BME280;34005;48.844;10.098;2023-04-05T00:15:48;97149.19;;;2.06;53.49
48216;BME280;34005;48.844;10.098;2023-04-05T00:18:18;97156.63;;;1.98;53.77
48216;BME280;34005;48.844;10.098;2023-04-05T00:20:49;97156.63;;;1.98;53.26
48216;BME280;34005;48.844;10.098;2023-04-05T00:23:17;97150.31;;;1.91;54.39
48216;BME280;34005;48.844;10.098;2023-04-05T00:25:46;97145.19;;;1.91;55.62
48216;BME280;34005;48.844;10.098;2023-04-05T00:28:14;97149.28;;;1.94;54.54
48216;BME280;34005;48.844;10.098;2023-04-05T00:30:42;97152.28;;;1.88;54.04
48216;BME280;34005;48.844;10.098;2023-04-05T00:33:10;97153.44;;;1.83;54.49
48216;BME280;34005;48.844;10.098;2023-04-05T00:35:39;97151.72;;;1.84;54.96
48216;BME280;34005;48.844;10.098;2023-04-05T00:38:07;97149.97;;;1.84;55.88
48216;BME280;34005;48.844;10.098;2023-04-05T00:40:35;97141.28;;;1.85;55.00
48216;BME280;34005;48.844;10.098;2023-04-05T00:43:02;97144.34;;;1.79;54.52
48216;BME280;34005;48.844;10.098;2023-04-05T00:45:30;97140.00;;;1.80;54.67
48216;BME280;34005;48.844;10.098;2023-04-05T00:47:58;97144.22;;;1.81;54.70
48216;BME280;34005;48.844;10.098;2023-04-05T00:50:27;97136.03;;;1.76;54.26
48216;BME280;34005;48.844;10.098;2023-04-05T00:52:57;97136.47;;;1.70;54.06
48216;BME280;34005;48.844;10.098;2023-04-05T00:55:26;97131.91;;;1.62;54.01
48216;BME280;34005;48.844;10.098;2023-04-05T00:57:54;97131.66;;;1.54;53.89
48216;BME280;34005;48.844;10.098;2023-04-05T01:00:22;97132.47;;;1.54;54.46
48216;BME280;34005;48.844;10.098;2023-04-05T01:02:51;97130.00;;;1.53;54.13
48216;BME280;34005;48.844;10.098;2023-04-05T01:05:32;97120.84;;;1.49;56.71
48216;BME280;34005;48.844;10.098;2023-04-05T01:08:11;97123.44;;;1.49;55.92
48216;BME280;34005;48.844;10.098;2023-04-05T01:10:43;97112.13;;;1.51;58.55
48216;BME280;34005;48.844;10.098;2023-04-05T01:13:15;97113.03;;;1.50;56.15
48216;BME280;34005;48.844;10.098;2023-04-05T01:15:42;97098.19;;;1.42;55.62
48216;BME280;34005;48.844;10.098;2023-04-05T01:18:10;97099.56;;;1.35;55.73
48216;BME280;34005;48.844;10.098;2023-04-05T01:20:41;97097.81;;;1.36;56.36
48216;BME280;34005;48.844;10.098;2023-04-05T01:23:37;97099.44;;;1.37;55.99
48216;BME280;34005;48.844;10.098;2023-04-05T01:26:36;97089.88;;;1.39;56.80
48216;BME280;34005;48.844;10.098;2023-04-05T01:29:38;97090.59;;;1.41;55.83
48216;BME280;34005;48.844;10.098;2023-04-05T01:32:16;97084.06;;;1.48;58.41
48216;BME280;34005;48.844;10.098;2023-04-05T01:34:50;97088.03;;;1.52;56.25
48216;BME280;34005;48.844;10.098;2023-04-05T01:37:19;97091.75;;;1.48;56.46
48216;BME280;34005;48.844;10.098;2023-04-05T01:39:49;97086.03;;;1.44;56.16
48216;BME280;34005;48.844;10.098;2023-04-05T01:42:22;97077.03;;;1.39;55.95
48216;BME280;34005;48.844;10.098;2023-04-05T01:44:53;97077.25;;;1.36;56.16
48216;BME280;34005;48.844;10.098;2023-04-05T01:47:20;97080.63;;;1.36;55.95
48216;BME280;34005;48.844;10.098;2023-04-05T01:49:48;97066.97;;;1.36;55.92
48216;BME280;34005;48.844;10.098;2023-04-05T01:52:16;97077.72;;;1.41;55.13
48216;BME280;34005;48.844;10.098;2023-04-05T01:54:43;97069.91;;;1.42;56.25
48216;BME280;34005;48.844;10.098;2023-04-05T01:57:11;97076.13;;;1.51;56.36
48216;BME280;34005;48.844;10.098;2023-04-05T01:59:38;97070.31;;;1.60;56.63
48216;BME280;34005;48.844;10.098;2023-04-05T02:02:07;97068.31;;;1.64;55.14
48216;BME280;34005;48.844;10.098;2023-04-05T02:04:35;97067.13;;;1.68;57.00
48216;BME280;34005;48.844;10.098;2023-04-05T02:07:03;97066.69;;;1.74;56.18
48216;BME280;34005;48.844;10.098;2023-04-05T02:09:30;97062.69;;;1.70;55.10
48216;BME280;34005;48.844;10.098;2023-04-05T02:11:58;97062.47;;;1.62;54.46
48216;BME280;34005;48.844;10.098;2023-04-05T02:14:26;97061.50;;;1.52;54.53
48216;BME280;34005;48.844;10.098;2023-04-05T02:16:54;97064.28;;;1.49;56.17
48216;BME280;34005;48.844;10.098;2023-04-05T02:19:23;97064.91;;;1.52;58.02
48216;BME280;34005;48.844;10.098;2023-04-05T02:21:51;97060.22;;;1.57;56.05
48216;BME280;34005;48.844;10.098;2023-04-05T02:24:20;97056.38;;;1.52;55.57
48216;BME280;34005;48.844;10.098;2023-04-05T02:26:48;97056.47;;;1.39;55.29
48216;BME280;34005;48.844;10.098;2023-04-05T02:29:16;97054.06;;;1.24;55.57
48216;BME280;34005;48.844;10.098;2023-04-05T02:31:44;97054.06;;;1.24;56.21
48216;BME280;34005;48.844;10.098;2023-04-05T02:34:11;97055.63;;;1.27;55.90
48216;BME280;34005;48.844;10.098;2023-04-05T02:36:41;97059.09;;;1.26;55.65
48216;BME280;34005;48.844;10.098;2023-04-05T02:39:09;97056.88;;;1.21;55.67
48216;BME280;34005;48.844;10.098;2023-04-05T02:41:37;97051.03;;;1.19;55.66
48216;BME280;34005;48.844;10.098;2023-04-05T02:44:04;97050.22;;;1.19;55.26
48216;BME280;34005;48.844;10.098;2023-04-05T02:46:32;97054.75;;;1.15;55.29
48216;BME280;34005;48.844;10.098;2023-04-05T02:49:00;97046.78;;;1.07;56.03
48216;BME280;34005;48.844;10.098;2023-04-05T02:51:27;97048.66;;;1.05;56.19
48216;BME280;34005;48.844;10.098;2023-04-05T02:53:56;97046.19;;;1.03;56.17
48216;BME280;34005;48.844;10.098;2023-04-05T02:56:24;97052.16;;;1.04;56.20
48216;BME280;34005;48.844;10.098;2023-04-05T02:58:51;97055.06;;;0.99;56.04
48216;BME280;34005;48.844;10.098;2023-04-05T03:01:19;97046.88;;;0.94;55.88
48216;BME280;34005;48.844;10.098;2023-04-05T03:03:48;97047.88;;;0.92;56.13
48216;BME280;34005;48.844;10.098;2023-04-05T03:06:16;97043.59;;;0.92;57.87
48216;BME280;34005;48.844;10.098;2023-04-05T03:08:46;97047.44;;;0.98;57.02
48216;BME280;34005;48.844;10.098;2023-04-05T03:11:16;97038.59;;;1.02;59.35
48216;BME280;34005;48.844;10.098;2023-04-05T03:13:43;97035.47;;;1.10;59.53
48216;BME280;34005;48.844;10.098;2023-04-05T03:16:11;97037.72;;;1.14;57.70
48216;BME280;34005;48.844;10.098;2023-04-05T03:18:38;97032.44;;;1.16;58.83
48216;BME280;34005;48.844;10.098;2023-04-05T03:21:06;97035.63;;;1.19;59.00
48216;BME280;34005;48.844;10.098;2023-04-05T03:23:37;97035.41;;;1.22;57.78
48216;BME280;34005;48.844;10.098;2023-04-05T03:26:05;97033.50;;;1.24;57.44
48216;BME280;34005;48.844;10.098;2023-04-05T03:28:34;97034.94;;;1.29;56.61
48216;BME280;34005;48.844;10.098;2023-04-05T03:31:02;97025.69;;;1.26;56.14
48216;BME280;34005;48.844;10.098;2023-04-05T03:33:29;97032.13;;;1.20;55.77
48216;BME280;34005;48.844;10.098;2023-04-05T03:35:58;97026.97;;;1.20;56.13
48216;BME280;34005;48.844;10.098;2023-04-05T03:38:25;97027.19;;;1.17;55.36
48216;BME280;34005;48.844;10.098;2023-04-05T03:40:53;97025.78;;;1.13;55.44
48216;BME280;34005;48.844;10.098;2023-04-05T03:43:21;97020.72;;;1.00;55.46
48216;BME280;34005;48.844;10.098;2023-04-05T03:45:50;97025.38;;;0.95;55.19
48216;BME280;34005;48.844;10.098;2023-04-05T03:48:18;97023.25;;;0.89;55.35
48216;BME280;34005;48.844;10.098;2023-04-05T03:50:46;97025.44;;;0.82;55.64
48216;BME280;34005;48.844;10.098;2023-04-05T03:53:14;97023.53;;;0.73;55.50
48216;BME280;34005;48.844;10.098;2023-04-05T03:55:44;97028.06;;;0.70;57.08
48216;BME280;34005;48.844;10.098;2023-04-05T03:58:15;97033.56;;;0.76;58.64
48216;BME280;34005;48.844;10.098;2023-04-05T04:00:42;97029.03;;;0.80;57.68
48216;BME280;34005;48.844;10.098;2023-04-05T04:03:11;97023.53;;;0.73;57.19
48216;BME280;34005;48.844;10.098;2023-04-05T04:05:39;97029.25;;;0.66;57.17
48216;BME280;34005;48.844;10.098;2023-04-05T04:08:07;97029.88;;;0.56;57.41
48216;BME280;34005;48.844;10.098;2023-04-05T04:10:35;97030.00;;;0.55;58.89
48216;BME280;34005;48.844;10.098;2023-04-05T04:13:03;97034.47;;;0.64;59.02
48216;BME280;34005;48.844;10.098;2023-04-05T04:15:30;97033.00;;;0.73;58.75
48216;BME280;34005;48.844;10.098;2023-04-05T04:17:58;97038.72;;;0.76;57.94
48216;BME280;34005;48.844;10.098;2023-04-05T04:20:27;97032.56;;;0.79;59.57
48216;BME280;34005;48.844;10.098;2023-04-05T04:22:56;97041.22;;;0.89;59.43
48216;BME280;34005;48.844;10.098;2023-04-05T04:25:23;97034.13;;;0.93;57.86
48216;BME280;34005;48.844;10.098;2023-04-05T04:27:51;97039.69;;;0.87;57.07
48216;BME280;34005;48.844;10.098;2023-04-05T04:30:19;97035.22;;;0.77;57.18
48216;BME280;34005;48.844;10.098;2023-04-05T04:32:48;97028.91;;;0.70;57.39
48216;BME280;34005;48.844;10.098;2023-04-05T04:35:21;97034.38;;;0.66;57.28
48216;BME280;34005;48.844;10.098;2023-04-05T04:37:54;97037.94;;;0.63;57.15
48216;BME280;34005;48.844;10.098;2023-04-05T04:40:23;97044.94;;;0.61;56.80
48216;BME280;34005;48.844;10.098;2023-04-05T04:42:52;97042.31;;;0.50;56.90
48216;BME280;34005;48.844;10.098;2023-04-05T04:45:19;97044.81;;;0.38;57.03
48216;BME280;34005;48.844;10.098;2023-04-05T04:47:48;97043.63;;;0.31;57.45
48216;BME280;34005;48.844;10.098;2023-04-05T04:50:19;97043.41;;;0.34;57.72
48216;BME280;34005;48.844;10.098;2023-04-05T04:52:47;97042.97;;;0.40;58.67
48216;BME280;34005;48.844;10.098;2023-04-05T04:55:16;97043.47;;;0.46;57.67
48216;BME280;34005;48.844;10.098;2023-04-05T04:57:44;97047.44;;;0.50;57.32
48216;BME280;34005;48.844;10.098;2023-04-05T05:00:12;97045.94;;;0.47;57.18
48216;BME280;34005;48.844;10.098;2023-04-05T05:02:42;97038.06;;;0.37;57.39
48216;BME280;34005;48.844;10.098;2023-04-05T05:05:10;97039.53;;;0.29;57.61
48216;BME280;34005;48.844;10.098;2023-04-05T05:07:39;97038.91;;;0.25;57.68
48216;BME280;34005;48.844;10.098;2023-04-05T05:10:08;97037.28;;;0.24;57.72
48216;BME280;34005;48.844;10.098;2023-04-05T05:12:38;97040.53;;;0.26;58.38
48216;BME280;34005;48.844;10.098;2023-04-05T05:15:06;97046.50;;;0.27;58.83
48216;BME280;34005;48.844;10.098;2023-04-05T05:17:34;97048.47;;;0.23;58.92
48216;BME280;34005;48.844;10.098;2023-04-05T05:20:03;97039.44;;;0.17;59.01
48216;BME280;34005;48.844;10.098;2023-04-05T05:22:36;97039.75;;;0.13;59.08
48216;BME280;34005;48.844;10.098;2023-04-05T05:25:05;97045.09;;;0.10;58.77
48216;BME280;34005;48.844;10.098;2023-04-05T05:27:34;97036.69;;;0.08;59.56
48216;BME280;34005;48.844;10.098;2023-04-05T05:30:03;97040.88;;;0.09;59.46
48216;BME280;34005;48.844;10.098;2023-04-05T05:32:31;97042.75;;;0.07;59.38
48216;BME280;34005;48.844;10.098;2023-04-05T05:34:59;97036.69;;;0.08;59.85
48216;BME280;34005;48.844;10.098;2023-04-05T05:37:28;97038.31;;;0.09;59.39
48216;BME280;34005;48.844;10.098;2023-04-05T05:39:56;97021.63;;;0.03;58.92
48216;BME280;34005;48.844;10.098;2023-04-05T05:42:24;97033.81;;;-0.01;59.11
48216;BME280;34005;48.844;10.098;2023-04-05T05:44:52;97035.47;;;0.01;59.45
48216;BME280;34005;48.844;10.098;2023-04-05T05:47:21;97040.28;;;0.05;59.79
48216;BME280;34005;48.844;10.098;2023-04-05T05:49:48;97036.28;;;0.14;61.35
48216;BME280;34005;48.844;10.098;2023-04-05T05:52:16;97049.06;;;0.27;61.02
48216;BME280;34005;48.844;10.098;2023-04-05T05:54:43;97051.50;;;0.28;59.60
48216;BME280;34005;48.844;10.098;2023-04-05T05:57:12;97051.84;;;0.24;59.47
48216;BME280;34005;48.844;10.098;2023-04-05T05:59:39;97043.03;;;0.15;59.11
48216;BME280;34005;48.844;10.098;2023-04-05T06:02:07;97046.94;;;0.08;59.26
48216;BME280;34005;48.844;10.098;2023-04-05T06:04:36;97048.56;;;0.09;61.29
48216;BME280;34005;48.844;10.098;2023-04-05T06:07:04;97051.66;;;0.14;60.50
48216;BME280;34005;48.844;10.098;2023-04-05T06:09:32;97053.91;;;0.18;60.02
48216;BME280;34005;48.844;10.098;2023-04-05T06:12:00;97056.69;;;0.15;59.66
48216;BME280;34005;48.844;10.098;2023-04-05T06:14:28;97049.28;;;0.11;59.38
48216;BME280;34005;48.844;10.098;2023-04-05T06:16:56;97057.00;;;0.11;59.60
48216;BME280;34005;48.844;10.098;2023-04-05T06:19:24;97048.38;;;0.12;59.55
48216;BME280;34005;48.844;10.098;2023-04-05T06:21:53;97057.50;;;0.16;59.63
48216;BME280;34005;48.844;10.098;2023-04-05T06:24:21;97064.28;;;0.17;59.42
48216;BME280;34005;48.844;10.098;2023-04-05T06:26:49;97068.97;;;0.23;59.54
48216;BME280;34005;48.844;10.098;2023-04-05T06:29:17;97057.69;;;0.26;59.27
48216;BME280;34005;48.844;10.098;2023-04-05T06:31:45;97055.03;;;0.27;59.17
48216;BME280;34005;48.844;10.098;2023-04-05T06:34:13;97054.78;;;0.30;59.24
48216;BME280;34005;48.844;10.098;2023-04-05T06:36:41;97060.31;;;0.37;59.15
48216;BME280;34005;48.844;10.098;2023-04-05T06:39:10;97050.66;;;0.40;59.21
48216;BME280;34005;48.844;10.098;2023-04-05T06:41:37;97052.81;;;0.47;59.18
48216;BME280;34005;48.844;10.098;2023-04-05T06:44:05;97058.22;;;0.55;59.00
48216;BME280;34005;48.844;10.098;2023-04-05T06:46:32;97058.28;;;0.66;59.95
48216;BME280;34005;48.844;10.098;2023-04-05T06:49:00;97062.72;;;0.88;61.36
48216;BME280;34005;48.844;10.098;2023-04-05T06:51:29;97053.34;;;1.11;61.13
48216;BME280;34005;48.844;10.098;2023-04-05T06:53:57;97059.72;;;1.30;61.46
48216;BME280;34005;48.844;10.098;2023-04-05T06:56:26;97059.50;;;1.44;60.77
48216;BME280;34005;48.844;10.098;2023-04-05T06:58:54;97059.19;;;1.60;61.49
48216;BME280;34005;48.844;10.098;2023-04-05T07:01:23;97048.13;;;1.82;60.58
48216;BME280;34005;48.844;10.098;2023-04-05T07:03:52;97051.59;;;1.92;58.68
48216;BME280;34005;48.844;10.098;2023-04-05T07:06:19;97050.69;;;2.04;59.75
48216;BME280;34005;48.844;10.098;2023-04-05T07:08:49;97054.91;;;2.17;57.95
48216;BME280;34005;48.844;10.098;2023-04-05T07:11:17;97059.78;;;2.31;57.19
48216;BME280;34005;48.844;10.098;2023-04-05T07:13:48;97063.41;;;2.40;56.17
48216;BME280;34005;48.844;10.098;2023-04-05T07:16:15;97063.28;;;2.53;55.85
48216;BME280;34005;48.844;10.098;2023-04-05T07:18:48;97057.16;;;2.65;55.96
48216;BME280;34005;48.844;10.098;2023-04-05T07:21:16;97058.38;;;2.82;55.16
48216;BME280;34005;48.844;10.098;2023-04-05T07:23:44;97057.03;;;2.99;57.20
48216;BME280;34005;48.844;10.098;2023-04-05T07:26:11;97052.16;;;3.17;55.43
48216;BME280;34005;48.844;10.098;2023-04-05T07:28:39;97051.75;;;3.33;54.41
48216;BME280;34005;48.844;10.098;2023-04-05T07:31:08;97054.47;;;3.52;53.22
48216;BME280;34005;48.844;10.098;2023-04-05T07:33:35;97051.84;;;3.73;54.92
48216;BME280;34005;48.844;10.098;2023-04-05T07:36:03;97046.66;;;3.94;53.11
48216;BME280;34005;48.844;10.098;2023-04-05T07:38:31;97054.63;;;4.12;52.59
48216;BME280;34005;48.844;10.098;2023-04-05T07:40:58;97051.16;;;4.32;51.52
48216;BME280;34005;48.844;10.098;2023-04-05T07:43:26;97050.38;;;4.51;50.12
48216;BME280;34005;48.844;10.098;2023-04-05T07:46:00;97050.69;;;4.68;51.82
48216;BME280;34005;48.844;10.098;2023-04-05T07:48:29;97045.00;;;4.84;49.15
48216;BME280;34005;48.844;10.098;2023-04-05T07:51:02;97048.66;;;5.01;47.60
48216;BME280;34005;48.844;10.098;2023-04-05T07:53:29;97041.47;;;5.24;47.34
48216;BME280;34005;48.844;10.098;2023-04-05T07:55:57;97047.19;;;5.47;46.24
48216;BME280;34005;48.844;10.098;2023-04-05T07:58:25;97038.78;;;5.72;46.93
48216;BME280;34005;48.844;10.098;2023-04-05T08:00:58;97041.47;;;6.00;44.91
48216;BME280;34005;48.844;10.098;2023-04-05T08:03:25;97047.16;;;6.41;46.04
48216;BME280;34005;48.844;10.098;2023-04-05T08:05:55;97049.88;;;7.91;42.40
48216;BME280;34005;48.844;10.098;2023-04-05T08:08:23;97038.63;;;10.31;38.75
48216;BME280;34005;48.844;10.098;2023-04-05T08:10:51;97047.41;;;12.45;35.74
48216;BME280;34005;48.844;10.098;2023-04-05T08:13:18;97039.81;;;14.00;31.84
48216;BME280;34005;48.844;10.098;2023-04-05T08:15:46;97044.94;;;15.12;29.32
48216;BME280;34005;48.844;10.098;2023-04-05T08:18:13;97041.75;;;15.90;28.72
48216;BME280;34005;48.844;10.098;2023-04-05T08:20:41;97041.53;;;16.63;29.54
48216;BME280;34005;48.844;10.098;2023-04-05T08:23:10;97050.00;;;17.48;26.30
48216;BME280;34005;48.844;10.098;2023-04-05T08:25:38;97044.53;;;18.19;25.29
48216;BME280;34005;48.844;10.098;2023-04-05T08:28:08;97033.97;;;18.56;25.68
48216;BME280;34005;48.844;10.098;2023-04-05T08:30:35;97036.63;;;18.56;25.08
48216;BME280;34005;48.844;10.098;2023-04-05T08:33:04;97036.00;;;18.90;24.63
48216;BME280;34005;48.844;10.098;2023-04-05T08:35:35;97041.75;;;19.29;23.06
48216;BME280;34005;48.844;10.098;2023-04-05T08:38:02;97042.31;;;19.73;23.91
48216;BME280;34005;48.844;10.098;2023-04-05T08:40:38;97047.28;;;20.05;23.32
48216;BME280;34005;48.844;10.098;2023-04-05T08:43:10;97045.38;;;20.65;23.31
48216;BME280;34005;48.844;10.098;2023-04-05T08:45:45;97047.91;;;21.00;21.65
48216;BME280;34005;48.844;10.098;2023-04-05T08:48:14;97043.44;;;21.17;21.08
48216;BME280;34005;48.844;10.098;2023-04-05T08:50:48;97040.88;;;21.23;21.85
48216;BME280;34005;48.844;10.098;2023-04-05T08:53:17;97043.44;;;21.17;20.82
48216;BME280;34005;48.844;10.098;2023-04-05T08:55:48;97046.50;;;21.26;20.43
48216;BME280;34005;48.844;10.098;2023-04-05T08:58:18;97045.91;;;21.53;19.40
48216;BME280;34005;48.844;10.098;2023-04-05T09:00:48;97047.38;;;21.60;19.84
48216;BME280;34005;48.844;10.098;2023-04-05T09:03:21;97045.38;;;21.22;19.75
48216;BME280;34005;48.844;10.098;2023-04-05T09:05:50;97047.94;;;21.17;19.63
48216;BME280;34005;48.844;10.098;2023-04-05T09:08:18;97039.03;;;20.54;20.22
48216;BME280;34005;48.844;10.098;2023-04-05T09:10:49;97035.91;;;19.27;20.77
48216;BME280;34005;48.844;10.098;2023-04-05T09:13:18;97037.50;;;19.70;23.06
48216;BME280;34005;48.844;10.098;2023-04-05T09:15:46;97033.09;;;20.11;21.52
48216;BME280;34005;48.844;10.098;2023-04-05T09:18:13;97037.34;;;20.24;21.33
48216;BME280;34005;48.844;10.098;2023-04-05T09:20:55;97037.94;;;20.26;22.74
48216;BME280;34005;48.844;10.098;2023-04-05T09:23:23;97030.50;;;19.88;20.26
48216;BME280;34005;48.844;10.098;2023-04-05T09:25:52;97032.06;;;19.11;20.13
48216;BME280;34005;48.844;10.098;2023-04-05T09:28:19;97036.09;;;18.47;20.87
48216;BME280;34005;48.844;10.098;2023-04-05T09:30:47;97032.19;;;17.94;21.54
48216;BME280;34005;48.844;10.098;2023-04-05T09:33:18;97028.72;;;17.68;21.09
48216;BME280;34005;48.844;10.098;2023-04-05T09:35:49;97034.56;;;17.52;21.41
48216;BME280;34005;48.844;10.098;2023-04-05T09:38:16;97022.31;;;17.01;21.97
48216;BME280;34005;48.844;10.098;2023-04-05T09:40:45;97034.69;;;16.48;22.26
48216;BME280;34005;48.844;10.098;2023-04-05T09:43:36;97035.25;;;16.12;24.38
48216;BME280;34005;48.844;10.098;2023-04-05T09:46:04;97021.09;;;16.00;23.45
48216;BME280;34005;48.844;10.098;2023-04-05T09:48:45;97034.44;;;15.85;22.91
48216;BME280;34005;48.844;10.098;2023-04-05T09:51:13;97025.78;;;15.78;23.94
48216;BME280;34005;48.844;10.098;2023-04-05T09:53:55;97028.00;;;15.81;24.07
48216;BME280;34005;48.844;10.098;2023-04-05T09:56:23;97025.53;;;15.99;25.28
48216;BME280;34005;48.844;10.098;2023-04-05T09:58:56;97031.97;;;16.17;24.42
48216;BME280;34005;48.844;10.098;2023-04-05T10:01:26;97020.78;;;16.35;24.77
48216;BME280;34005;48.844;10.098;2023-04-05T10:03:56;97028.69;;;16.35;23.22
48216;BME280;34005;48.844;10.098;2023-04-05T10:06:33;97015.81;;;16.00;22.31
48216;BME280;34005;48.844;10.098;2023-04-05T10:09:01;97024.72;;;15.52;23.57
48216;BME280;34005;48.844;10.098;2023-04-05T10:11:31;97024.69;;;15.06;23.69
48216;BME280;34005;48.844;10.098;2023-04-05T10:14:02;97025.97;;;14.55;23.82
48216;BME280;34005;48.844;10.098;2023-04-05T10:16:32;97019.72;;;14.21;24.76
48216;BME280;34005;48.844;10.098;2023-04-05T10:19:01;97012.44;;;14.16;25.78
48216;BME280;34005;48.844;10.098;2023-04-05T10:21:34;97010.09;;;14.28;28.96
48216;BME280;34005;48.844;10.098;2023-04-05T10:24:14;97004.34;;;14.53;26.38
48216;BME280;34005;48.844;10.098;2023-04-05T10:26:47;97002.00;;;14.78;25.07
48216;BME280;34005;48.844;10.098;2023-04-05T10:29:24;96998.59;;;14.84;24.87
48216;BME280;34005;48.844;10.098;2023-04-05T10:32:00;96999.81;;;14.81;24.26
48216;BME280;34005;48.844;10.098;2023-04-05T10:34:35;96994.72;;;14.73;24.21
48216;BME280;34005;48.844;10.098;2023-04-05T10:37:07;97002.25;;;14.83;24.65
48216;BME280;34005;48.844;10.098;2023-04-05T10:39:40;97002.06;;;14.91;24.47
48216;BME280;34005;48.844;10.098;2023-04-05T10:42:12;96997.81;;;14.90;24.12
48216;BME280;34005;48.844;10.098;2023-04-05T10:44:45;96996.59;;;15.06;26.96
48216;BME280;34005;48.844;10.098;2023-04-05T10:47:13;97002.09;;;15.24;26.53
48216;BME280;34005;48.844;10.098;2023-04-05T10:49:45;97005.53;;;15.45;24.24
48216;BME280;34005;48.844;10.098;2023-04-05T10:52:14;96991.59;;;15.44;23.65
48216;BME280;34005;48.844;10.098;2023-04-05T10:54:43;96996.66;;;15.33;24.48
48216;BME280;34005;48.844;10.098;2023-04-05T10:57:11;96994.59;;;15.35;24.07
48216;BME280;34005;48.844;10.098;2023-04-05T10:59:40;96998.66;;;15.31;25.16
48216;BME280;34005;48.844;10.098;2023-04-05T11:02:10;97001.06;;;15.32;24.94
48216;BME280;34005;48.844;10.098;2023-04-05T11:04:39;96992.38;;;15.32;24.15
48216;BME280;34005;48.844;10.098;2023-04-05T11:07:12;96994.41;;;15.36;25.72
48216;BME280;34005;48.844;10.098;2023-04-05T11:09:51;96992.38;;;15.58;23.25
48216;BME280;34005;48.844;10.098;2023-04-05T11:12:19;96983.50;;;15.53;23.02
48216;BME280;34005;48.844;10.098;2023-04-05T11:15:29;96981.88;;;15.38;23.59
48216;BME280;34005;48.844;10.098;2023-04-05T11:18:06;96982.91;;;15.31;23.78
48216;BME280;34005;48.844;10.098;2023-04-05T11:20:42;96979.06;;;15.27;24.12
48216;BME280;34005;48.844;10.098;2023-04-05T11:23:11;96981.06;;;15.24;25.08
48216;BME280;34005;48.844;10.098;2023-04-05T11:25:39;96977.84;;;15.22;24.28
48216;BME280;34005;48.844;10.098;2023-04-05T11:28:22;96969.34;;;15.07;23.05
48216;BME280;34005;48.844;10.098;2023-04-05T11:30:51;96971.31;;;14.78;24.21
48216;BME280;34005;48.844;10.098;2023-04-05T11:33:53;96968.22;;;14.55;25.39
48216;BME280;34005;48.844;10.098;2023-04-05T11:36:31;96966.25;;;14.70;25.97
48216;BME280;34005;48.844;10.098;2023-04-05T11:39:24;96966.09;;;14.85;24.29
48216;BME280;34005;48.844;10.098;2023-04-05T11:42:01;96966.06;;;14.78;24.11
48216;BME280;34005;48.844;10.098;2023-04-05T11:44:29;96958.88;;;14.46;24.42
48216;BME280;34005;48.844;10.098;2023-04-05T11:47:05;96952.13;;;14.23;24.49
48216;BME280;34005;48.844;10.098;2023-04-05T11:49:35;96952.06;;;14.10;24.45
48216;BME280;34005;48.844;10.098;2023-04-05T11:52:14;96945.22;;;14.09;25.14
48216;BME280;34005;48.844;10.098;2023-04-05T11:54:43;96951.47;;;14.08;24.45
48216;BME280;34005;48.844;10.098;2023-04-05T11:57:18;96953.06;;;14.02;24.79
48216;BME280;34005;48.844;10.098;2023-04-05T11:59:48;96949.63;;;14.01;24.97
48216;BME280;34005;48.844;10.098;2023-04-05T12:02:17;96937.94;;;14.04;25.78
48216;BME280;34005;48.844;10.098;2023-04-05T12:04:52;96944.75;;;13.98;25.35
48216;BME280;34005;48.844;10.098;2023-04-05T12:07:20;96937.84;;;13.84;25.40
48216;BME280;34005;48.844;10.098;2023-04-05T12:09:58;96935.75;;;13.73;25.46
48216;BME280;34005;48.844;10.098;2023-04-05T12:12:26;96940.28;;;13.57;25.35
48216;BME280;34005;48.844;10.098;2023-04-05T12:15:00;96941.75;;;13.32;25.48
48216;BME280;34005;48.844;10.098;2023-04-05T12:17:41;96936.00;;;13.22;25.65
48216;BME280;34005;48.844;10.098;2023-04-05T12:20:12;96939.59;;;13.20;26.00
48216;BME280;34005;48.844;10.098;2023-04-05T12:22:41;96937.13;;;13.12;25.87
48216;BME280;34005;48.844;10.098;2023-04-05T12:25:10;96925.41;;;13.08;26.51
48216;BME280;34005;48.844;10.098;2023-04-05T12:27:38;96926.91;;;13.17;27.18
48216;BME280;34005;48.844;10.098;2023-04-05T12:30:11;96932.56;;;13.21;25.84
48216;BME280;34005;48.844;10.098;2023-04-05T12:32:45;96922.28;;;13.19;25.83
48216;BME280;34005;48.844;10.098;2023-04-05T12:35:18;96922.91;;;13.22;25.82
48216;BME280;34005;48.844;10.098;2023-04-05T12:37:46;96916.66;;;13.23;26.58
48216;BME280;34005;48.844;10.098;2023-04-05T12:40:19;96920.41;;;13.35;26.67
48216;BME280;34005;48.844;10.098;2023-04-05T12:42:48;96912.75;;;13.40;26.36
48216;BME280;34005;48.844;10.098;2023-04-05T12:45:16;96908.16;;;13.42;26.84
48216;BME280;34005;48.844;10.098;2023-04-05T12:47:48;96908.53;;;13.39;26.94
48216;BME280;34005;48.844;10.098;2023-04-05T12:50:18;96897.84;;;13.34;27.48
48216;BME280;34005;48.844;10.098;2023-04-05T12:52:55;96893.59;;;13.33;28.07
48216;BME280;34005;48.844;10.098;2023-04-05T12:55:23;96900.06;;;13.37;27.35
48216;BME280;34005;48.844;10.098;2023-04-05T12:57:52;96899.41;;;13.28;27.57
48216;BME280;34005;48.844;10.098;2023-04-05T13:00:21;96894.69;;;13.24;28.40
48216;BME280;34005;48.844;10.098;2023-04-05T13:02:52;96895.69;;;13.23;28.38
48216;BME280;34005;48.844;10.098;2023-04-05T13:05:23;96890.19;;;13.11;26.70
48216;BME280;34005;48.844;10.098;2023-04-05T13:07:51;96886.88;;;13.02;28.90
48216;BME280;34005;48.844;10.098;2023-04-05T13:10:20;96883.66;;;13.00;26.67